createdAt,value
2017-07-25T00:02:08.201Z,65.41
2017-07-25T00:04:35.644Z,65.44
2017-07-25T00:07:03.088Z,65.51
2017-07-25T00:09:30.573Z,65.55
2017-07-25T00:11:57.998Z,65.53
2017-07-25T00:14:25.487Z,65.52
2017-07-25T00:16:52.909Z,65.54
2017-07-25T00:19:20.328Z,65.54
2017-07-25T00:21:47.767Z,65.55
2017-07-25T00:24:15.204Z,65.59
2017-07-25T00:26:42.992Z,65.57
2017-07-25T00:29:10.415Z,65.58
2017-07-25T00:31:38.526Z,65.53
2017-07-25T00:34:05.953Z,65.63
2017-07-25T00:36:33.406Z,65.64
2017-07-25T00:39:00.828Z,65.56
2017-07-25T00:41:28.252Z,65.63
2017-07-25T00:43:55.677Z,65.67
2017-07-25T00:46:23.115Z,65.64
2017-07-25T00:48:50.551Z,65.71
2017-07-25T00:51:17.993Z,65.71
2017-07-25T00:53:45.433Z,65.78
2017-07-25T00:56:12.887Z,65.75
2017-07-25T00:58:40.323Z,65.77
2017-07-25T01:01:07.752Z,65.75
2017-07-25T01:03:35.247Z,65.81
2017-07-25T01:06:02.697Z,65.82
2017-07-25T01:08:30.124Z,65.87
2017-07-25T01:10:57.627Z,65.87
2017-07-25T01:13:25.424Z,65.78
2017-07-25T01:15:52.865Z,65.91
2017-07-25T01:18:20.305Z,65.90
2017-07-25T01:20:47.729Z,65.93
2017-07-25T01:23:15.165Z,65.94
2017-07-25T01:25:42.662Z,65.95
2017-07-25T01:28:10.342Z,65.91
2017-07-25T01:30:37.775Z,65.96
2017-07-25T01:33:05.257Z,65.99
2017-07-25T01:35:32.706Z,65.99
2017-07-25T01:38:00.262Z,66.05
2017-07-25T01:40:27.721Z,66.02
2017-07-25T01:42:55.189Z,66.02
2017-07-25T01:45:22.648Z,66.05
2017-07-25T01:47:50.403Z,66.09
2017-07-25T01:50:17.854Z,66.05
2017-07-25T01:52:45.317Z,66.05
2017-07-25T01:55:12.753Z,66.11
2017-07-25T01:57:40.229Z,66.07
2017-07-25T02:00:07.652Z,66.07
2017-07-25T02:02:35.073Z,66.03
2017-07-25T02:05:02.511Z,65.02
2017-07-25T02:07:29.938Z,63.83
2017-07-25T02:09:57.754Z,62.75
2017-07-25T02:12:25.495Z,62.08
2017-07-25T02:14:53.038Z,61.68
2017-07-25T02:17:20.475Z,60.79
2017-07-25T02:19:47.897Z,60.29
2017-07-25T02:22:15.334Z,60.94
2017-07-25T02:24:42.777Z,61.67
2017-07-25T02:27:10.237Z,62.15
2017-07-25T02:29:37.779Z,62.68
2017-07-25T02:32:05.201Z,63.10
2017-07-25T02:34:32.710Z,63.31
2017-07-25T02:37:00.521Z,63.47
2017-07-25T02:39:27.951Z,63.69
2017-07-25T02:41:55.454Z,63.93
2017-07-25T02:44:22.873Z,64.08
2017-07-25T02:46:50.301Z,64.19
2017-07-25T02:49:17.760Z,64.31
2017-07-25T02:51:45.732Z,64.39
2017-07-25T02:54:13.172Z,64.47
2017-07-25T02:56:40.616Z,64.48
2017-07-25T02:59:08.455Z,64.64
2017-07-25T03:01:35.891Z,64.71
2017-07-25T03:04:03.333Z,64.76
2017-07-25T03:06:30.932Z,64.76
2017-07-25T03:08:58.371Z,64.81
2017-07-25T03:11:25.812Z,64.85
2017-07-25T03:13:53.552Z,64.92
2017-07-25T03:16:21.004Z,64.95
2017-07-25T03:18:48.438Z,64.97
2017-07-25T03:21:15.876Z,65.02
2017-07-25T03:23:43.300Z,65.05
2017-07-25T03:26:10.754Z,65.09
2017-07-25T03:28:38.208Z,65.12
2017-07-25T03:31:05.656Z,65.25
2017-07-25T03:33:33.081Z,65.15
2017-07-25T03:36:00.912Z,65.23
2017-07-25T03:38:28.360Z,65.26
2017-07-25T03:40:55.800Z,65.30
2017-07-25T03:43:23.565Z,65.33
2017-07-25T03:45:51.186Z,65.43
2017-07-25T03:48:18.939Z,65.41
2017-07-25T03:50:46.723Z,65.44
2017-07-25T03:53:14.400Z,65.51
2017-07-25T03:55:41.840Z,65.50
2017-07-25T03:58:09.265Z,65.62
2017-07-25T04:00:37.088Z,65.57
2017-07-25T04:03:04.531Z,65.64
2017-07-25T04:05:31.996Z,65.64
2017-07-25T04:07:59.437Z,65.69
2017-07-25T04:10:26.876Z,65.72
2017-07-25T04:12:54.374Z,65.71
2017-07-25T04:15:21.815Z,65.74
2017-07-25T04:17:49.254Z,65.76
2017-07-25T04:20:16.695Z,65.79
2017-07-25T04:22:44.136Z,65.81
2017-07-25T04:25:11.561Z,65.82
2017-07-25T04:27:39.107Z,65.83
2017-07-25T04:30:06.562Z,65.87
2017-07-25T04:32:34.004Z,65.91
2017-07-25T04:35:01.445Z,65.89
2017-07-25T04:37:29.157Z,66.00
2017-07-25T04:39:56.586Z,65.91
2017-07-25T04:42:24.167Z,65.94
2017-07-25T04:44:51.923Z,66.01
2017-07-25T04:47:19.364Z,65.93
2017-07-25T04:49:46.847Z,65.99
2017-07-25T04:52:14.268Z,66.08
2017-07-25T04:54:41.707Z,65.96
2017-07-25T04:57:09.270Z,66.01
2017-07-25T04:59:36.984Z,66.01
2017-07-25T05:02:04.804Z,66.03
2017-07-25T05:04:32.244Z,66.02
2017-07-25T05:06:59.664Z,66.03
2017-07-25T05:09:27.427Z,66.01
2017-07-25T05:11:54.860Z,66.04
2017-07-25T05:14:22.368Z,66.13
2017-07-25T05:16:50.009Z,65.94
2017-07-25T05:19:17.452Z,66.01
2017-07-25T05:21:44.895Z,66.04
2017-07-25T05:24:12.730Z,66.00
2017-07-25T05:26:40.232Z,66.01
2017-07-25T05:29:07.676Z,66.10
2017-07-25T05:31:35.153Z,65.95
2017-07-25T05:34:02.919Z,66.00
2017-07-25T05:36:30.360Z,65.98
2017-07-25T05:38:57.836Z,65.99
2017-07-25T05:41:25.599Z,66.06
2017-07-25T05:43:53.044Z,65.58
2017-07-25T05:46:20.480Z,64.60
2017-07-25T05:48:47.909Z,63.32
2017-07-25T05:51:15.337Z,62.78
2017-07-25T05:53:42.761Z,61.78
2017-07-25T05:56:10.200Z,61.27
2017-07-25T05:58:38.158Z,60.96
2017-07-25T06:01:05.599Z,60.93
2017-07-25T06:03:33.025Z,61.93
2017-07-25T06:06:00.482Z,62.27
2017-07-25T06:08:28.278Z,62.83
2017-07-25T06:10:55.729Z,63.30
2017-07-25T06:13:23.455Z,63.47
2017-07-25T06:15:50.896Z,63.67
2017-07-25T06:18:18.349Z,63.87
2017-07-25T06:20:45.792Z,64.04
2017-07-25T06:23:13.291Z,64.23
2017-07-25T06:25:40.775Z,64.37
2017-07-25T06:28:08.197Z,64.44
2017-07-25T06:30:35.649Z,64.50
2017-07-25T06:33:03.116Z,64.56
2017-07-25T06:35:30.572Z,64.66
2017-07-25T06:37:58.014Z,64.73
2017-07-25T06:40:25.441Z,64.78
2017-07-25T06:42:52.883Z,64.84
2017-07-25T06:45:20.406Z,64.90
2017-07-25T06:47:47.829Z,64.85
2017-07-25T06:50:15.281Z,64.98
2017-07-25T06:52:42.778Z,65.00
2017-07-25T06:55:10.215Z,65.02
2017-07-25T06:57:37.642Z,65.09
2017-07-25T07:00:05.147Z,65.10
2017-07-25T07:02:32.609Z,65.13
2017-07-25T07:05:00.057Z,65.16
2017-07-25T07:07:27.493Z,65.20
2017-07-25T07:09:54.937Z,65.22
2017-07-25T07:12:22.428Z,65.24
2017-07-25T07:14:50.199Z,65.26
2017-07-25T07:17:17.645Z,65.30
2017-07-25T07:19:45.103Z,65.32
2017-07-25T07:22:12.564Z,65.32
2017-07-25T07:24:40.048Z,65.34
2017-07-25T07:27:07.492Z,65.42
2017-07-25T07:29:34.932Z,65.43
2017-07-25T07:32:02.390Z,65.49
2017-07-25T07:34:29.857Z,65.53
2017-07-25T07:36:57.616Z,65.50
2017-07-25T07:39:25.056Z,65.55
2017-07-25T07:41:52.499Z,65.59
2017-07-25T07:44:19.987Z,65.62
2017-07-25T07:46:47.410Z,65.76
2017-07-25T07:49:14.899Z,65.88
2017-07-25T07:51:42.885Z,65.91
2017-07-25T07:54:10.458Z,65.87
2017-07-25T07:56:39.026Z,65.86
2017-07-25T07:59:06.493Z,65.95
2017-07-25T08:01:33.983Z,66.10
2017-07-25T08:04:01.429Z,66.83
2017-07-25T08:06:28.867Z,66.83
2017-07-25T08:08:56.461Z,66.56
2017-07-25T08:11:23.900Z,66.58
2017-07-25T08:13:51.346Z,66.53
2017-07-25T08:16:18.773Z,66.64
2017-07-25T08:18:46.226Z,66.58
2017-07-25T08:21:13.654Z,66.64
2017-07-25T08:23:41.073Z,66.72
2017-07-25T08:26:08.516Z,66.72
2017-07-25T08:28:36.279Z,66.86
2017-07-25T08:31:04.042Z,66.75
2017-07-25T08:33:31.587Z,66.83
2017-07-25T08:35:59.054Z,66.77
2017-07-25T08:38:26.506Z,66.75
2017-07-25T08:40:53.959Z,66.89
2017-07-25T08:43:21.412Z,66.93
2017-07-25T08:45:48.887Z,67.01
2017-07-25T08:48:16.719Z,67.16
2017-07-25T08:50:44.150Z,67.38
2017-07-25T08:53:11.585Z,66.87
2017-07-25T08:55:39.027Z,66.04
2017-07-25T08:58:06.440Z,64.93
2017-07-25T09:00:33.884Z,63.87
2017-07-25T09:03:01.324Z,63.36
2017-07-25T09:05:28.746Z,63.07
2017-07-25T09:07:56.307Z,62.79
2017-07-25T09:10:24.071Z,62.53
2017-07-25T09:12:51.530Z,62.48
2017-07-25T09:15:18.976Z,62.19
2017-07-25T09:17:46.416Z,62.10
2017-07-25T09:20:14.109Z,61.75
2017-07-25T09:22:41.548Z,61.33
2017-07-25T09:25:08.969Z,60.93
2017-07-25T09:27:36.430Z,60.62
2017-07-25T09:30:04.332Z,60.42
2017-07-25T09:32:31.858Z,60.16
2017-07-25T09:34:59.295Z,60.74
2017-07-25T09:37:27.019Z,61.47
2017-07-25T09:39:54.783Z,61.95
2017-07-25T09:42:22.231Z,62.53
2017-07-25T09:44:49.698Z,62.96
2017-07-25T09:47:17.138Z,63.24
2017-07-25T09:49:44.590Z,63.41
2017-07-25T09:52:12.027Z,63.62
2017-07-25T09:54:39.490Z,63.74
2017-07-25T09:57:06.970Z,64.03
2017-07-25T09:59:34.385Z,63.99
2017-07-25T10:02:01.899Z,64.16
2017-07-25T10:04:29.872Z,64.33
2017-07-25T10:06:57.313Z,64.38
2017-07-25T10:09:24.743Z,64.48
2017-07-25T10:11:52.641Z,64.59
2017-07-25T10:14:20.317Z,64.70
2017-07-25T10:16:47.754Z,64.74
2017-07-25T10:19:15.187Z,64.95
2017-07-25T10:21:43.026Z,65.04
2017-07-25T10:24:10.467Z,65.05
2017-07-25T10:26:37.894Z,65.14
2017-07-25T10:29:05.317Z,65.30
2017-07-25T10:31:32.760Z,65.38
2017-07-25T10:34:00.373Z,65.41
2017-07-25T10:36:27.803Z,65.47
2017-07-25T10:38:55.217Z,65.58
2017-07-25T10:41:22.744Z,66.18
2017-07-25T10:43:50.166Z,66.17
2017-07-25T10:46:17.661Z,66.40
2017-07-25T10:48:45.151Z,66.62
2017-07-25T10:51:12.593Z,66.54
2017-07-25T10:53:40.042Z,66.49
2017-07-25T10:56:07.491Z,66.53
2017-07-25T10:58:34.934Z,66.50
2017-07-25T11:01:02.345Z,66.45
2017-07-25T11:03:30.076Z,66.46
2017-07-25T11:05:57.504Z,66.39
2017-07-25T11:08:25.309Z,66.29
2017-07-25T11:10:52.730Z,66.21
2017-07-25T11:13:20.164Z,66.24
2017-07-25T11:15:47.762Z,66.26
2017-07-25T11:18:15.181Z,66.23
2017-07-25T11:20:42.620Z,66.21
2017-07-25T11:23:10.066Z,66.15
2017-07-25T11:25:37.494Z,66.09
2017-07-25T11:28:04.924Z,66.10
2017-07-25T11:30:32.770Z,66.16
2017-07-25T11:33:00.485Z,66.24
2017-07-25T11:35:27.923Z,66.33
2017-07-25T11:37:55.552Z,66.30
2017-07-25T11:40:22.966Z,66.23
2017-07-25T11:42:50.399Z,66.24
2017-07-25T11:45:17.839Z,66.24
2017-07-25T11:47:45.249Z,66.30
2017-07-25T11:50:12.679Z,66.29
2017-07-25T11:52:40.107Z,66.30
2017-07-25T11:55:07.935Z,66.31
2017-07-25T11:57:35.345Z,66.37
2017-07-25T12:00:02.800Z,66.28
2017-07-25T12:02:30.229Z,66.37
2017-07-25T12:04:57.814Z,66.38
2017-07-25T12:07:25.242Z,66.38
2017-07-25T12:09:52.679Z,66.36
2017-07-25T12:12:20.111Z,66.39
2017-07-25T12:14:47.657Z,66.39
2017-07-25T12:17:15.080Z,66.37
2017-07-25T12:19:42.520Z,66.37
2017-07-25T12:22:09.942Z,66.36
2017-07-25T12:24:37.353Z,66.37
2017-07-25T12:27:05.249Z,66.34
2017-07-25T12:29:32.687Z,66.34
2017-07-25T12:32:00.111Z,66.34
2017-07-25T12:34:27.544Z,66.37
2017-07-25T12:36:54.961Z,66.39
2017-07-25T12:39:22.542Z,66.32
2017-07-25T12:41:49.972Z,66.33
2017-07-25T12:44:17.389Z,66.35
2017-07-25T12:46:44.812Z,66.30
2017-07-25T12:49:12.244Z,66.35
2017-07-25T12:51:39.664Z,66.48
2017-07-25T12:54:07.091Z,66.38
2017-07-25T12:56:34.509Z,66.39
2017-07-25T12:59:01.944Z,66.17
2017-07-25T13:01:29.650Z,65.26
2017-07-25T13:03:57.080Z,65.31
2017-07-25T13:06:24.512Z,65.18
2017-07-25T13:08:51.943Z,65.52
2017-07-25T13:11:19.388Z,65.90
2017-07-25T13:13:46.820Z,66.02
2017-07-25T13:16:14.403Z,65.10
2017-07-25T13:18:41.833Z,64.06
2017-07-25T13:21:09.274Z,62.96
2017-07-25T13:23:36.804Z,61.93
2017-07-25T13:26:04.230Z,61.51
2017-07-25T13:28:32.184Z,61.05
2017-07-25T13:30:59.619Z,60.66
2017-07-25T13:33:27.952Z,60.07
2017-07-25T13:35:55.393Z,60.41
2017-07-25T13:38:22.816Z,61.36
2017-07-25T13:40:50.237Z,62.08
2017-07-25T13:43:17.654Z,62.70
2017-07-25T13:45:45.110Z,63.17
2017-07-25T13:48:12.543Z,63.38
2017-07-25T13:50:39.953Z,63.63
2017-07-25T13:53:07.483Z,63.80
2017-07-25T13:55:34.920Z,63.98
2017-07-25T13:58:02.401Z,64.07
2017-07-25T14:00:29.832Z,64.22
2017-07-25T14:02:57.315Z,64.28
2017-07-25T14:05:24.756Z,64.41
2017-07-25T14:07:52.227Z,64.57
2017-07-25T14:10:19.664Z,64.70
2017-07-25T14:12:47.104Z,64.74
2017-07-25T14:15:14.597Z,64.80
2017-07-25T14:17:42.142Z,65.00
2017-07-25T14:20:09.599Z,64.96
2017-07-25T14:22:37.025Z,65.03
2017-07-25T14:25:04.519Z,65.07
2017-07-25T14:27:31.937Z,65.14
2017-07-25T14:29:59.358Z,65.20
2017-07-25T14:32:26.769Z,65.19
2017-07-25T14:34:54.250Z,65.25
2017-07-25T14:37:21.675Z,65.36
2017-07-25T14:39:49.100Z,65.39
2017-07-25T14:42:16.535Z,65.40
2017-07-25T14:44:43.954Z,65.43
2017-07-25T14:47:11.772Z,65.40
2017-07-25T14:49:39.187Z,65.50
2017-07-25T14:52:06.761Z,65.53
2017-07-25T14:54:34.181Z,65.54
2017-07-25T14:57:01.593Z,65.61
2017-07-25T14:59:29.142Z,65.63
2017-07-25T15:01:56.576Z,65.66
2017-07-25T15:04:24.012Z,65.70
2017-07-25T15:06:51.499Z,65.75
2017-07-25T15:09:18.919Z,65.71
2017-07-25T15:11:46.415Z,65.89
2017-07-25T15:14:13.825Z,65.87
2017-07-25T15:16:41.252Z,65.93
2017-07-25T15:19:08.675Z,65.92
2017-07-25T15:21:36.108Z,65.95
2017-07-25T15:24:06.377Z,65.97
2017-07-25T15:26:34.056Z,65.95
2017-07-25T15:29:01.494Z,65.91
2017-07-25T15:31:29.152Z,65.92
2017-07-25T15:33:56.578Z,65.91
2017-07-25T15:36:24.279Z,65.95
2017-07-25T15:38:51.712Z,66.07
2017-07-25T15:41:20.016Z,66.05
2017-07-25T15:43:47.480Z,66.06
2017-07-25T15:46:15.846Z,66.06
2017-07-25T15:48:43.320Z,66.10
2017-07-25T15:51:10.756Z,66.15
2017-07-25T15:53:38.183Z,66.10
2017-07-25T15:56:05.623Z,66.21
2017-07-25T15:58:33.331Z,66.15
2017-07-25T16:01:00.779Z,66.06
2017-07-25T16:03:28.947Z,66.92
2017-07-25T16:05:56.619Z,66.92
2017-07-25T16:08:24.455Z,66.96
2017-07-25T16:10:52.366Z,67.04
2017-07-25T16:13:19.782Z,67.03
2017-07-25T16:15:47.677Z,66.20
2017-07-25T16:18:15.349Z,65.17
2017-07-25T16:20:42.901Z,64.05
2017-07-25T16:23:10.358Z,63.17
2017-07-25T16:25:37.777Z,62.10
2017-07-25T16:28:05.212Z,61.33
2017-07-25T16:30:32.863Z,61.28
2017-07-25T16:33:00.504Z,60.67
2017-07-25T16:35:27.927Z,60.32
2017-07-25T16:37:55.863Z,60.84
2017-07-25T16:40:23.295Z,61.79
2017-07-25T16:42:50.719Z,62.73
2017-07-25T16:45:20.354Z,63.01
2017-07-25T17:33:55.815Z,68.52
2017-07-25T17:36:24.903Z,68.50
2017-07-25T17:38:54.972Z,68.15
2017-07-25T17:41:24.066Z,67.99
2017-07-25T17:43:53.384Z,67.89
2017-07-25T17:46:22.923Z,67.78
2017-07-25T18:12:51.536Z,68.18
2017-07-25T18:15:21.705Z,68.00
2017-07-25T18:25:25.911Z,61.24
2017-07-25T18:27:55.370Z,63.27
2017-07-25T18:30:24.491Z,63.88
2017-07-25T18:32:53.616Z,63.89
2017-07-25T18:35:22.853Z,63.90
2017-07-25T18:37:52.040Z,63.92
2017-07-25T18:40:21.555Z,63.78
2017-07-25T18:42:50.665Z,63.91
2017-07-25T18:45:20.017Z,63.72
2017-07-25T18:47:49.362Z,63.78
2017-07-25T18:50:18.827Z,63.82
